sensor_id;sensor_type;location;lat;lon;timestamp;pressure;altitude;pressure_sealevel;temperature;humidity
19210;BME280;9738;51.654;14.238;2022-07-31T00:00:33;100620.00;;;13.53;100.00
19210;BME280;9738;51.654;14.238;2022-07-31T00:02:58;100613.31;;;13.49;100.00
19210;BME280;9738;51.654;14.238;2022-07-31T00:05:24;100611.78;;;13.47;100.00
19210;BME280;9738;51.654;14.238;2022-07-31T00:07:52;100621.19;;;13.43;100.00
19210;BME280;9738;51.654;14.238;2022-07-31T00:10:19;100624.72;;;13.43;100.00
19210;BME280;9738;51.654;14.238;2022-07-31T00:12:45;100624.84;;;13.42;100.00
19210;BME280;9738;51.654;14.238;2022-07-31T00:15:12;100623.19;;;13.41;100.00
19210;BME280;9738;51.654;14.238;2022-07-31T00:17:38;100624.00;;;13.41;100.00
19210;BME280;9738;51.654;14.238;2022-07-31T00:20:04;100625.72;;;13.42;100.00
19210;BME280;9738;51.654;14.238;2022-07-31T00:22:32;100625.72;;;13.42;100.00
19210;BME280;9738;51.654;14.238;2022-07-31T00:24:57;100622.16;;;13.42;100.00
19210;BME280;9738;51.654;14.238;2022-07-31T00:27:23;100621.31;;;13.41;100.00
19210;BME280;9738;51.654;14.238;2022-07-31T00:29:49;100609.94;;;13.39;100.00
19210;BME280;9738;51.654;14.238;2022-07-31T00:32:15;100613.94;;;13.35;100.00
19210;BME280;9738;51.654;14.238;2022-07-31T00:34:41;100621.69;;;13.38;100.00
19210;BME280;9738;51.654;14.238;2022-07-31T00:37:10;100618.34;;;13.44;100.00
19210;BME280;9738;51.654;14.238;2022-07-31T00:39:36;100625.03;;;13.48;100.00
19210;BME280;9738;51.654;14.238;2022-07-31T00:42:02;100613.97;;;13.51;100.00
19210;BME280;9738;51.654;14.238;2022-07-31T00:44:28;100620.69;;;13.56;100.00
19210;BME280;9738;51.654;14.238;2022-07-31T00:46:54;100618.03;;;13.56;100.00
19210;BME280;9738;51.654;14.238;2022-07-31T00:49:19;100610.63;;;13.49;100.00
19210;BME280;9738;51.654;14.238;2022-07-31T00:51:46;100617.31;;;13.45;100.00
19210;BME280;9738;51.654;14.238;2022-07-31T00:54:12;100619.66;;;13.40;100.00
19210;BME280;9738;51.654;14.238;2022-07-31T00:56:38;100615.13;;;13.33;100.00
19210;BME280;9738;51.654;14.238;2022-07-31T00:59:05;100615.78;;;13.27;100.00
19210;BME280;9738;51.654;14.238;2022-07-31T01:01:31;100612.25;;;13.26;100.00
19210;BME280;9738;51.654;14.238;2022-07-31T01:03:56;100612.44;;;13.24;100.00
19210;BME280;9738;51.654;14.238;2022-07-31T01:06:23;100607.06;;;13.24;100.00
19210;BME280;9738;51.654;14.238;2022-07-31T01:08:49;100606.38;;;13.22;100.00
19210;BME280;9738;51.654;14.238;2022-07-31T01:11:20;100608.22;;;13.22;100.00
19210;BME280;9738;51.654;14.238;2022-07-31T01:13:53;100603.03;;;13.20;100.00
19210;BME280;9738;51.654;14.238;2022-07-31T01:16:22;100610.19;;;13.20;100.00
19210;BME280;9738;51.654;14.238;2022-07-31T01:18:50;100604.53;;;13.23;100.00
19210;BME280;9738;51.654;14.238;2022-07-31T01:21:20;100608.56;;;13.27;100.00
19210;BME280;9738;51.654;14.238;2022-07-31T01:27:00;100592.31;;;13.29;100.00
19210;BME280;9738;51.654;14.238;2022-07-31T01:29:34;100585.09;;;13.29;100.00
19210;BME280;9738;51.654;14.238;2022-07-31T01:32:07;100588.63;;;13.30;100.00
19210;BME280;9738;51.654;14.238;2022-07-31T01:37:23;100593.13;;;13.29;100.00
19210;BME280;9738;51.654;14.238;2022-07-31T01:40:08;100591.47;;;13.28;100.00
19210;BME280;9738;51.654;14.238;2022-07-31T01:42:36;100604.56;;;13.31;100.00
19210;BME280;9738;51.654;14.238;2022-07-31T01:45:05;100596.50;;;13.31;100.00
19210;BME280;9738;51.654;14.238;2022-07-31T01:47:33;100602.72;;;13.32;100.00
19210;BME280;9738;51.654;14.238;2022-07-31T01:50:01;100596.50;;;13.31;100.00
19210;BME280;9738;51.654;14.238;2022-07-31T01:52:31;100599.50;;;13.28;100.00
19210;BME280;9738;51.654;14.238;2022-07-31T01:54:58;100598.00;;;13.25;100.00
19210;BME280;9738;51.654;14.238;2022-07-31T01:57:26;100597.50;;;13.22;100.00
19210;BME280;9738;51.654;14.238;2022-07-31T01:59:59;100607.56;;;13.28;100.00
19210;BME280;9738;51.654;14.238;2022-07-31T02:02:27;100602.19;;;13.28;100.00
19210;BME280;9738;51.654;14.238;2022-07-31T02:04:54;100604.88;;;13.28;100.00
19210;BME280;9738;51.654;14.238;2022-07-31T02:07:21;100606.22;;;13.32;100.00
19210;BME280;9738;51.654;14.238;2022-07-31T02:09:49;100600.38;;;13.37;100.00
19210;BME280;9738;51.654;14.238;2022-07-31T02:12:15;100590.31;;;13.39;100.00
19210;BME280;9738;51.654;14.238;2022-07-31T02:14:42;100583.94;;;13.40;100.00
19210;BME280;9738;51.654;14.238;2022-07-31T02:17:10;100580.59;;;13.38;100.00
19210;BME280;9738;51.654;14.238;2022-07-31T02:19:38;100579.59;;;13.39;100.00
19210;BME280;9738;51.654;14.238;2022-07-31T02:22:05;100572.72;;;13.36;100.00
19210;BME280;9738;51.654;14.238;2022-07-31T02:24:32;100574.72;;;13.34;100.00
19210;BME280;9738;51.654;14.238;2022-07-31T02:26:59;100566.00;;;13.32;100.00
19210;BME280;9738;51.654;14.238;2022-07-31T02:29:29;100573.38;;;13.30;100.00
19210;BME280;9738;51.654;14.238;2022-07-31T02:31:58;100569.34;;;13.34;100.00
19210;BME280;9738;51.654;14.238;2022-07-31T02:34:25;100567.34;;;13.36;100.00
19210;BME280;9738;51.654;14.238;2022-07-31T02:36:53;100566.34;;;13.37;100.00
19210;BME280;9738;51.654;14.238;2022-07-31T02:39:21;100577.44;;;13.42;100.00
19210;BME280;9738;51.654;14.238;2022-07-31T02:41:48;100571.88;;;13.44;100.00
19210;BME280;9738;51.654;14.238;2022-07-31T02:44:14;100574.56;;;13.44;100.00
19210;BME280;9738;51.654;14.238;2022-07-31T02:46:42;100582.25;;;13.47;100.00
19210;BME280;9738;51.654;14.238;2022-07-31T02:49:11;100574.03;;;13.48;100.00
19210;BME280;9738;51.654;14.238;2022-07-31T02:51:39;100574.75;;;13.50;100.00
19210;BME280;9738;51.654;14.238;2022-07-31T02:54:06;100576.94;;;13.55;100.00
19210;BME280;9738;51.654;14.238;2022-07-31T02:56:32;100567.69;;;13.58;100.00
19210;BME280;9738;51.654;14.238;2022-07-31T02:58:58;100569.03;;;13.62;100.00
19210;BME280;9738;51.654;14.238;2022-07-31T03:01:25;100571.06;;;13.68;100.00
19210;BME280;9738;51.654;14.238;2022-07-31T03:03:51;100564.16;;;13.73;100.00
19210;BME280;9738;51.654;14.238;2022-07-31T03:06:17;100566.34;;;13.78;100.00
19210;BME280;9738;51.654;14.238;2022-07-31T03:08:43;100565.84;;;13.83;100.00
19210;BME280;9738;51.654;14.238;2022-07-31T03:11:09;100557.94;;;13.89;100.00
19210;BME280;9738;51.654;14.238;2022-07-31T03:13:36;100559.94;;;13.95;100.00
19210;BME280;9738;51.654;14.238;2022-07-31T03:16:04;100554.22;;;14.06;100.00
19210;BME280;9738;51.654;14.238;2022-07-31T03:18:31;100546.47;;;14.12;100.00
19210;BME280;9738;51.654;14.238;2022-07-31T03:20:58;100551.16;;;14.18;100.00
19210;BME280;9738;51.654;14.238;2022-07-31T03:23:26;100550.00;;;14.20;100.00
19210;BME280;9738;51.654;14.238;2022-07-31T03:25:52;100548.16;;;14.21;100.00
19210;BME280;9738;51.654;14.238;2022-07-31T03:28:19;100548.81;;;14.23;100.00
19210;BME280;9738;51.654;14.238;2022-07-31T03:30:50;100549.31;;;14.26;100.00
19210;BME280;9738;51.654;14.238;2022-07-31T03:33:16;100545.09;;;14.24;100.00
19210;BME280;9738;51.654;14.238;2022-07-31T03:35:41;100544.44;;;14.22;100.00
19210;BME280;9738;51.654;14.238;2022-07-31T03:38:08;100534.06;;;14.19;100.00
19210;BME280;9738;51.654;14.238;2022-07-31T03:40:33;100532.72;;;14.15;100.00
19210;BME280;9738;51.654;14.238;2022-07-31T03:43:00;100540.78;;;14.15;100.00
19210;BME280;9738;51.654;14.238;2022-07-31T03:45:28;100538.75;;;14.17;100.00
19210;BME280;9738;51.654;14.238;2022-07-31T03:47:55;100542.94;;;14.19;100.00
19210;BME280;9738;51.654;14.238;2022-07-31T03:50:21;100546.13;;;14.23;100.00
19210;BME280;9738;51.654;14.238;2022-07-31T03:52:49;100552.00;;;14.26;100.00
19210;BME280;9738;51.654;14.238;2022-07-31T03:55:15;100558.84;;;14.29;100.00
19210;BME280;9738;51.654;14.238;2022-07-31T03:57:42;100563.22;;;14.30;100.00
19210;BME280;9738;51.654;14.238;2022-07-31T04:00:09;100556.16;;;14.29;100.00
19210;BME280;9738;51.654;14.238;2022-07-31T04:02:35;100558.84;;;14.29;100.00
19210;BME280;9738;51.654;14.238;2022-07-31T04:05:01;100565.91;;;14.30;100.00
19210;BME280;9738;51.654;14.238;2022-07-31T04:07:27;100565.75;;;14.31;100.00
19210;BME280;9738;51.654;14.238;2022-07-31T04:09:53;100574.47;;;14.33;100.00
19210;BME280;9738;51.654;14.238;2022-07-31T04:12:19;100562.88;;;14.33;100.00
19210;BME280;9738;51.654;14.238;2022-07-31T04:14:45;100564.22;;;14.29;100.00
19210;BME280;9738;51.654;14.238;2022-07-31T04:17:12;100568.78;;;14.28;100.00
19210;BME280;9738;51.654;14.238;2022-07-31T04:19:38;100558.19;;;14.27;100.00
19210;BME280;9738;51.654;14.238;2022-07-31T04:22:05;100556.81;;;14.31;100.00
19210;BME280;9738;51.654;14.238;2022-07-31T04:24:31;100558.34;;;14.33;100.00
19210;BME280;9738;51.654;14.238;2022-07-31T04:26:57;100565.72;;;14.40;100.00
19210;BME280;9738;51.654;14.238;2022-07-31T04:29:24;100570.06;;;14.49;100.00
19210;BME280;9738;51.654;14.238;2022-07-31T04:31:53;100573.28;;;14.52;100.00
19210;BME280;9738;51.654;14.238;2022-07-31T04:34:19;100576.28;;;14.57;100.00
19210;BME280;9738;51.654;14.238;2022-07-31T04:36:45;100581.28;;;14.60;100.00
19210;BME280;9738;51.654;14.238;2022-07-31T04:39:11;100582.63;;;14.65;100.00
19210;BME280;9738;51.654;14.238;2022-07-31T04:41:37;100571.34;;;14.69;100.00
19210;BME280;9738;51.654;14.238;2022-07-31T04:44:03;100571.13;;;14.79;100.00
19210;BME280;9738;51.654;14.238;2022-07-31T04:46:29;100572.09;;;14.86;100.00
19210;BME280;9738;51.654;14.238;2022-07-31T04:48:55;100575.09;;;14.91;100.00
19210;BME280;9738;51.654;14.238;2022-07-31T04:51:23;100577.28;;;14.96;100.00
19210;BME280;9738;51.654;14.238;2022-07-31T04:53:49;100572.38;;;14.99;100.00
19210;BME280;9738;51.654;14.238;2022-07-31T04:56:16;100577.69;;;15.07;100.00
19210;BME280;9738;51.654;14.238;2022-07-31T04:59:04;100577.66;;;15.16;100.00
19210;BME280;9738;51.654;14.238;2022-07-31T05:01:30;100572.41;;;15.22;100.00
19210;BME280;9738;51.654;14.238;2022-07-31T05:03:56;100565.47;;;15.28;100.00
19210;BME280;9738;51.654;14.238;2022-07-31T05:06:31;100566.63;;;15.33;100.00
19210;BME280;9738;51.654;14.238;2022-07-31T05:08:57;100565.03;;;15.39;100.00
19210;BME280;9738;51.654;14.238;2022-07-31T05:11:23;100575.28;;;15.44;100.00
19210;BME280;9738;51.654;14.238;2022-07-31T05:13:54;100572.06;;;15.48;100.00
19210;BME280;9738;51.654;14.238;2022-07-31T05:16:21;100568.66;;;15.54;100.00
19210;BME280;9738;51.654;14.238;2022-07-31T05:18:48;100581.38;;;15.60;100.00
19210;BME280;9738;51.654;14.238;2022-07-31T05:21:15;100580.03;;;15.64;100.00
19210;BME280;9738;51.654;14.238;2022-07-31T05:23:42;100584.53;;;15.72;100.00
19210;BME280;9738;51.654;14.238;2022-07-31T05:26:09;100586.66;;;15.77;100.00
19210;BME280;9738;51.654;14.238;2022-07-31T05:28:37;100589.63;;;15.82;100.00
19210;BME280;9738;51.654;14.238;2022-07-31T05:31:04;100593.47;;;15.87;100.00
19210;BME280;9738;51.654;14.238;2022-07-31T05:33:30;100588.19;;;15.94;100.00
19210;BME280;9738;51.654;14.238;2022-07-31T05:35:56;100583.75;;;16.01;100.00
19210;BME280;9738;51.654;14.238;2022-07-31T05:38:22;100576.59;;;16.08;100.00
19210;BME280;9738;51.654;14.238;2022-07-31T05:40:48;100579.38;;;16.15;100.00
19210;BME280;9738;51.654;14.238;2022-07-31T05:43:14;100572.44;;;16.20;100.00
19210;BME280;9738;51.654;14.238;2022-07-31T05:45:40;100579.59;;;16.28;100.00
19210;BME280;9738;51.654;14.238;2022-07-31T05:48:06;100583.88;;;16.37;100.00
19210;BME280;9738;51.654;14.238;2022-07-31T05:50:32;100576.53;;;16.46;100.00
19210;BME280;9738;51.654;14.238;2022-07-31T05:53:00;100576.25;;;16.56;100.00
19210;BME280;9738;51.654;14.238;2022-07-31T05:55:27;100580.31;;;16.66;100.00
19210;BME280;9738;51.654;14.238;2022-07-31T05:57:53;100578.50;;;16.82;100.00
19210;BME280;9738;51.654;14.238;2022-07-31T06:00:18;100570.91;;;16.92;100.00
19210;BME280;9738;51.654;14.238;2022-07-31T06:02:46;100569.69;;;17.09;100.00
19210;BME280;9738;51.654;14.238;2022-07-31T06:05:12;100573.75;;;17.20;100.00
19210;BME280;9738;51.654;14.238;2022-07-31T06:07:37;100578.19;;;17.27;100.00
19210;BME280;9738;51.654;14.238;2022-07-31T06:10:04;100578.31;;;17.41;100.00
19210;BME280;9738;51.654;14.238;2022-07-31T06:12:30;100570.75;;;17.51;100.00
19210;BME280;9738;51.654;14.238;2022-07-31T06:14:55;100573.94;;;17.61;100.00
19210;BME280;9738;51.654;14.238;2022-07-31T06:17:22;100575.38;;;17.78;100.00
19210;BME280;9738;51.654;14.238;2022-07-31T06:19:48;100576.63;;;18.04;100.00
19210;BME280;9738;51.654;14.238;2022-07-31T06:22:13;100575.59;;;18.33;100.00
19210;BME280;9738;51.654;14.238;2022-07-31T06:24:40;100561.59;;;18.64;100.00
19210;BME280;9738;51.654;14.238;2022-07-31T06:27:05;100572.59;;;18.97;100.00
19210;BME280;9738;51.654;14.238;2022-07-31T06:29:31;100568.31;;;19.29;100.00
19210;BME280;9738;51.654;14.238;2022-07-31T06:31:57;100567.72;;;19.54;100.00
19210;BME280;9738;51.654;14.238;2022-07-31T06:34:23;100569.84;;;19.78;100.00
19210;BME280;9738;51.654;14.238;2022-07-31T06:36:49;100571.72;;;19.97;100.00
19210;BME280;9738;51.654;14.238;2022-07-31T06:39:16;100571.50;;;20.19;100.00
19210;BME280;9738;51.654;14.238;2022-07-31T06:41:42;100571.88;;;20.42;100.00
19210;BME280;9738;51.654;14.238;2022-07-31T06:44:15;100575.19;;;20.58;100.00
19210;BME280;9738;51.654;14.238;2022-07-31T06:46:42;100571.78;;;20.75;100.00
19210;BME280;9738;51.654;14.238;2022-07-31T06:49:08;100585.09;;;20.90;100.00
19210;BME280;9738;51.654;14.238;2022-07-31T06:51:34;100578.78;;;21.03;100.00
19210;BME280;9738;51.654;14.238;2022-07-31T06:54:02;100572.56;;;21.34;100.00
19210;BME280;9738;51.654;14.238;2022-07-31T06:56:29;100572.06;;;21.44;100.00
19210;BME280;9738;51.654;14.238;2022-07-31T06:58:55;100572.78;;;21.64;100.00
19210;BME280;9738;51.654;14.238;2022-07-31T07:01:21;100573.75;;;21.76;100.00
19210;BME280;9738;51.654;14.238;2022-07-31T07:03:47;100572.34;;;21.92;100.00
19210;BME280;9738;51.654;14.238;2022-07-31T07:06:13;100573.75;;;22.01;100.00
19210;BME280;9738;51.654;14.238;2022-07-31T07:08:40;100574.56;;;22.02;100.00
19210;BME280;9738;51.654;14.238;2022-07-31T07:11:05;100568.22;;;22.15;100.00
19210;BME280;9738;51.654;14.238;2022-07-31T07:13:32;100572.75;;;22.21;100.00
19210;BME280;9738;51.654;14.238;2022-07-31T07:15:58;100569.44;;;22.37;100.00
19210;BME280;9738;51.654;14.238;2022-07-31T07:18:24;100568.97;;;22.58;100.00
19210;BME280;9738;51.654;14.238;2022-07-31T07:20:50;100575.63;;;22.62;100.00
19210;BME280;9738;51.654;14.238;2022-07-31T07:23:17;100569.44;;;22.74;100.00
19210;BME280;9738;51.654;14.238;2022-07-31T07:25:43;100563.75;;;22.75;100.00
19210;BME280;9738;51.654;14.238;2022-07-31T07:28:09;100567.06;;;22.77;100.00
19210;BME280;9738;51.654;14.238;2022-07-31T07:30:35;100564.88;;;22.86;100.00
19210;BME280;9738;51.654;14.238;2022-07-31T07:33:01;100569.44;;;22.92;73.50
19210;BME280;9738;51.654;14.238;2022-07-31T07:35:27;100571.84;;;23.00;68.79
19210;BME280;9738;51.654;14.238;2022-07-31T07:37:54;100558.53;;;23.10;68.51
19210;BME280;9738;51.654;14.238;2022-07-31T07:40:20;100566.41;;;23.30;66.78
19210;BME280;9738;51.654;14.238;2022-07-31T07:42:46;100565.16;;;23.44;66.13
19210;BME280;9738;51.654;14.238;2022-07-31T07:45:12;100560.50;;;23.75;65.83
19210;BME280;9738;51.654;14.238;2022-07-31T07:47:38;100559.78;;;23.91;63.16
19210;BME280;9738;51.654;14.238;2022-07-31T07:50:06;100559.34;;;23.94;62.38
19210;BME280;9738;51.654;14.238;2022-07-31T07:52:33;100568.59;;;23.93;62.63
19210;BME280;9738;51.654;14.238;2022-07-31T07:54:59;100559.47;;;23.99;62.67
19210;BME280;9738;51.654;14.238;2022-07-31T07:57:25;100563.47;;;23.97;61.38
19210;BME280;9738;51.654;14.238;2022-07-31T07:59:52;100559.22;;;24.13;61.82
19210;BME280;9738;51.654;14.238;2022-07-31T08:02:18;100563.84;;;24.24;59.20
19210;BME280;9738;51.654;14.238;2022-07-31T08:04:43;100554.25;;;24.45;58.96
19210;BME280;9738;51.654;14.238;2022-07-31T08:07:10;100547.28;;;24.77;60.51
19210;BME280;9738;51.654;14.238;2022-07-31T08:09:36;100544.75;;;24.88;55.22
19210;BME280;9738;51.654;14.238;2022-07-31T08:12:02;100553.44;;;24.85;55.78
19210;BME280;9738;51.654;14.238;2022-07-31T08:14:29;100540.06;;;25.00;57.61
19210;BME280;9738;51.654;14.238;2022-07-31T08:16:54;100538.25;;;25.17;58.13
19210;BME280;9738;51.654;14.238;2022-07-31T08:19:20;100538.38;;;25.39;55.21
19210;BME280;9738;51.654;14.238;2022-07-31T08:21:47;100538.59;;;25.38;55.14
19210;BME280;9738;51.654;14.238;2022-07-31T08:24:13;100538.53;;;25.32;52.99
19210;BME280;9738;51.654;14.238;2022-07-31T08:26:41;100525.69;;;25.33;52.66
19210;BME280;9738;51.654;14.238;2022-07-31T08:29:27;100534.72;;;25.33;53.61
19210;BME280;9738;51.654;14.238;2022-07-31T08:31:53;100529.81;;;25.36;54.42
19210;BME280;9738;51.654;14.238;2022-07-31T08:34:19;100530.59;;;25.48;54.09
19210;BME280;9738;51.654;14.238;2022-07-31T08:36:45;100530.00;;;25.46;53.55
19210;BME280;9738;51.654;14.238;2022-07-31T08:39:11;100529.75;;;25.47;54.10
19210;BME280;9738;51.654;14.238;2022-07-31T08:41:37;100520.31;;;25.55;54.33
19210;BME280;9738;51.654;14.238;2022-07-31T08:44:04;100519.91;;;25.46;51.41
19210;BME280;9738;51.654;14.238;2022-07-31T08:46:35;100523.78;;;25.50;52.95
19210;BME280;9738;51.654;14.238;2022-07-31T08:49:02;100526.28;;;25.52;51.92
19210;BME280;9738;51.654;14.238;2022-07-31T08:51:32;100516.00;;;25.59;53.14
19210;BME280;9738;51.654;14.238;2022-07-31T08:54:09;100515.50;;;25.62;51.52
19210;BME280;9738;51.654;14.238;2022-07-31T08:56:39;100514.34;;;25.58;50.38
19210;BME280;9738;51.654;14.238;2022-07-31T08:59:06;100514.69;;;25.61;50.72
19210;BME280;9738;51.654;14.238;2022-07-31T09:01:34;100513.94;;;25.66;51.27
19210;BME280;9738;51.654;14.238;2022-07-31T09:04:01;100505.22;;;25.69;51.14
19210;BME280;9738;51.654;14.238;2022-07-31T09:06:27;100514.72;;;25.78;51.50
19210;BME280;9738;51.654;14.238;2022-07-31T09:08:55;100514.03;;;25.88;50.80
19210;BME280;9738;51.654;14.238;2022-07-31T09:11:22;100507.47;;;25.89;50.57
19210;BME280;9738;51.654;14.238;2022-07-31T09:13:54;100514.75;;;26.00;49.22
19210;BME280;9738;51.654;14.238;2022-07-31T09:16:21;100504.72;;;26.06;51.32
19210;BME280;9738;51.654;14.238;2022-07-31T09:18:58;100509.19;;;26.12;49.88
19210;BME280;9738;51.654;14.238;2022-07-31T09:21:26;100505.81;;;26.27;49.55
19210;BME280;9738;51.654;14.238;2022-07-31T09:23:52;100503.06;;;26.27;47.79
19210;BME280;9738;51.654;14.238;2022-07-31T09:26:19;100503.06;;;26.27;48.13
19210;BME280;9738;51.654;14.238;2022-07-31T09:28:47;100500.66;;;26.30;50.83
19210;BME280;9738;51.654;14.238;2022-07-31T09:31:16;100485.88;;;26.48;48.58
19210;BME280;9738;51.654;14.238;2022-07-31T09:33:43;100496.25;;;26.68;49.50
19210;BME280;9738;51.654;14.238;2022-07-31T09:36:10;100499.09;;;26.78;46.96
19210;BME280;9738;51.654;14.238;2022-07-31T09:38:39;100483.28;;;26.85;46.48
19210;BME280;9738;51.654;14.238;2022-07-31T09:41:14;100485.09;;;27.02;47.73
19210;BME280;9738;51.654;14.238;2022-07-31T09:43:40;100491.84;;;27.16;46.00
19210;BME280;9738;51.654;14.238;2022-07-31T09:46:08;100488.41;;;27.31;46.35
19210;BME280;9738;51.654;14.238;2022-07-31T09:48:35;100481.22;;;27.57;46.51
19210;BME280;9738;51.654;14.238;2022-07-31T09:51:04;100481.06;;;27.68;45.10
19210;BME280;9738;51.654;14.238;2022-07-31T09:53:41;100475.50;;;27.63;43.49
19210;BME280;9738;51.654;14.238;2022-07-31T09:56:08;100474.16;;;27.66;46.44
19210;BME280;9738;51.654;14.238;2022-07-31T09:58:40;100467.16;;;27.85;43.86
19210;BME280;9738;51.654;14.238;2022-07-31T10:01:08;100457.41;;;28.05;46.26
19210;BME280;9738;51.654;14.238;2022-07-31T10:03:37;100460.16;;;28.05;43.66
19210;BME280;9738;51.654;14.238;2022-07-31T10:06:04;100450.22;;;27.98;43.52
19210;BME280;9738;51.654;14.238;2022-07-31T10:08:35;100448.84;;;27.96;43.67
19210;BME280;9738;51.654;14.238;2022-07-31T10:11:04;100453.88;;;28.09;44.77
19210;BME280;9738;51.654;14.238;2022-07-31T10:13:34;100442.41;;;28.27;44.67
19210;BME280;9738;51.654;14.238;2022-07-31T10:16:03;100446.53;;;28.25;42.55
19210;BME280;9738;51.654;14.238;2022-07-31T10:18:32;100445.84;;;27.97;42.30
19210;BME280;9738;51.654;14.238;2022-07-31T10:21:01;100441.38;;;27.81;43.25
19210;BME280;9738;51.654;14.238;2022-07-31T10:23:29;100443.63;;;27.94;45.21
19210;BME280;9738;51.654;14.238;2022-07-31T10:25:59;100443.25;;;28.28;43.52
19210;BME280;9738;51.654;14.238;2022-07-31T10:28:25;100432.06;;;28.40;42.80
19210;BME280;9738;51.654;14.238;2022-07-31T10:30:54;100438.09;;;28.42;41.81
19210;BME280;9738;51.654;14.238;2022-07-31T10:33:20;100432.84;;;28.35;41.89
19210;BME280;9738;51.654;14.238;2022-07-31T10:35:56;100437.88;;;28.59;44.29
19210;BME280;9738;51.654;14.238;2022-07-31T10:38:31;100431.91;;;28.82;42.02
19210;BME280;9738;51.654;14.238;2022-07-31T10:41:11;100423.69;;;29.02;40.54
19210;BME280;9738;51.654;14.238;2022-07-31T10:43:45;100428.09;;;29.19;40.72
19210;BME280;9738;51.654;14.238;2022-07-31T10:46:12;100417.38;;;29.27;42.43
19210;BME280;9738;51.654;14.238;2022-07-31T10:48:49;100425.06;;;28.95;39.26
19210;BME280;9738;51.654;14.238;2022-07-31T10:51:16;100423.72;;;29.07;41.18
19210;BME280;9738;51.654;14.238;2022-07-31T10:53:55;100423.41;;;28.94;40.76
19210;BME280;9738;51.654;14.238;2022-07-31T10:56:21;100417.91;;;28.94;38.88
19210;BME280;9738;51.654;14.238;2022-07-31T10:58:53;100414.91;;;29.11;39.69
19210;BME280;9738;51.654;14.238;2022-07-31T11:01:19;100413.78;;;29.32;42.86
19210;BME280;9738;51.654;14.238;2022-07-31T11:03:47;100414.31;;;29.49;38.02
19210;BME280;9738;51.654;14.238;2022-07-31T11:06:15;100404.69;;;29.57;40.93
19210;BME280;9738;51.654;14.238;2022-07-31T11:08:44;100399.44;;;29.76;39.97
19210;BME280;9738;51.654;14.238;2022-07-31T11:11:11;100406.63;;;29.67;37.89
19210;BME280;9738;51.654;14.238;2022-07-31T11:13:51;100403.88;;;29.51;39.51
19210;BME280;9738;51.654;14.238;2022-07-31T11:16:21;100397.25;;;29.57;40.42
19210;BME280;9738;51.654;14.238;2022-07-31T11:19:14;100409.63;;;29.50;38.31
19210;BME280;9738;51.654;14.238;2022-07-31T11:21:40;100404.16;;;29.19;38.22
19210;BME280;9738;51.654;14.238;2022-07-31T11:24:22;100410.75;;;28.93;39.58
19210;BME280;9738;51.654;14.238;2022-07-31T11:26:55;100405.84;;;28.95;39.66
19210;BME280;9738;51.654;14.238;2022-07-31T11:29:35;100406.56;;;28.75;39.11
19210;BME280;9738;51.654;14.238;2022-07-31T11:34:50;100394.56;;;29.01;40.37
19210;BME280;9738;51.654;14.238;2022-07-31T11:37:21;100400.84;;;29.07;40.74
19210;BME280;9738;51.654;14.238;2022-07-31T11:39:52;100395.91;;;29.34;42.17
19210;BME280;9738;51.654;14.238;2022-07-31T11:42:21;100388.41;;;29.71;40.51
19210;BME280;9738;51.654;14.238;2022-07-31T11:44:48;100388.69;;;29.84;39.46
19210;BME280;9738;51.654;14.238;2022-07-31T11:47:14;100389.22;;;29.81;38.87
19210;BME280;9738;51.654;14.238;2022-07-31T11:49:40;100387.34;;;29.61;37.68
19210;BME280;9738;51.654;14.238;2022-07-31T11:52:10;100379.41;;;29.34;39.09
19210;BME280;9738;51.654;14.238;2022-07-31T11:54:38;100381.91;;;29.16;38.14
19210;BME280;9738;51.654;14.238;2022-07-31T11:57:04;100382.97;;;28.89;39.19
19210;BME280;9738;51.654;14.238;2022-07-31T11:59:32;100385.94;;;28.67;37.68
19210;BME280;9738;51.654;14.238;2022-07-31T12:02:11;100387.34;;;28.70;40.04
19210;BME280;9738;51.654;14.238;2022-07-31T12:04:38;100379.09;;;28.80;40.78
19210;BME280;9738;51.654;14.238;2022-07-31T12:07:06;100379.09;;;28.70;40.00
19210;BME280;9738;51.654;14.238;2022-07-31T12:09:33;100376.84;;;28.46;40.17
19210;BME280;9738;51.654;14.238;2022-07-31T12:12:01;100385.00;;;28.26;39.62
19210;BME280;9738;51.654;14.238;2022-07-31T12:14:31;100380.03;;;28.13;40.74
19210;BME280;9738;51.654;14.238;2022-07-31T12:16:57;100383.28;;;27.99;41.66
19210;BME280;9738;51.654;14.238;2022-07-31T12:19:25;100386.19;;;27.83;41.61
19210;BME280;9738;51.654;14.238;2022-07-31T12:21:51;100389.03;;;27.61;42.80
19210;BME280;9738;51.654;14.238;2022-07-31T12:24:16;100393.34;;;27.46;42.99
19210;BME280;9738;51.654;14.238;2022-07-31T12:26:50;100388.28;;;27.28;42.52
19210;BME280;9738;51.654;14.238;2022-07-31T12:29:17;100394.81;;;27.17;43.17
19210;BME280;9738;51.654;14.238;2022-07-31T12:31:50;100388.84;;;26.98;43.86
19210;BME280;9738;51.654;14.238;2022-07-31T12:34:31;100397.19;;;26.81;44.32
19210;BME280;9738;51.654;14.238;2022-07-31T12:39:25;100391.13;;;26.52;44.35
19210;BME280;9738;51.654;14.238;2022-07-31T12:41:51;100391.94;;;26.48;44.58
19210;BME280;9738;51.654;14.238;2022-07-31T12:44:18;100380.09;;;26.42;45.47
19210;BME280;9738;51.654;14.238;2022-07-31T12:46:44;100380.53;;;26.34;45.32
19210;BME280;9738;51.654;14.238;2022-07-31T12:49:10;100378.84;;;26.33;45.55
19210;BME280;9738;51.654;14.238;2022-07-31T12:51:36;100377.72;;;26.29;44.90
19210;BME280;9738;51.654;14.238;2022-07-31T12:54:02;100382.88;;;26.25;45.64
19210;BME280;9738;51.654;14.238;2022-07-31T12:56:32;100380.06;;;26.20;45.49
19210;BME280;9738;51.654;14.238;2022-07-31T12:58:58;100377.59;;;26.19;45.45